Home > Products > Valid Products > TAF

000
FTUS43 KPAH 071140
TAFCGI
TAF
KCGI 071140Z 0712/0812 22007KT P6SM SCT250
     FM071600 22012G20KT P6SM BKN200
     FM072300 27008KT P6SM SCT050 OVC100=



000
FTUS43 KPAH 071140
TAFEVV
TAF
KEVV 071140Z 0712/0812 22007KT P6SM SCT250
     FM071500 22013G22KT P6SM BKN200
     FM080000 25007KT P6SM SCT050 OVC100 PROB30 0802/0806 -RA=



000
FTUS43 KPAH 071140
TAFPAH
TAF
KPAH 071140Z 0712/0812 22007KT P6SM SCT250
     FM071600 22011G18KT P6SM BKN200
     FM080000 27007KT P6SM SCT050 OVC100=



000
FTUS43 KPAH 070531
TAFEVV
TAF
KEVV 070531Z 0706/0806 21003KT P6SM SCT250
     FM071600 21012G18KT P6SM BKN200
     FM080000 27007KT P6SM SCT050 OVC100=



000
FTUS43 KPAH 070531
TAFCGI
TAF
KCGI 070531Z 0706/0806 21003KT P6SM SCT250
     FM071600 22012G18KT P6SM BKN200
     FM072300 27008KT P6SM SCT050 OVC100=



000
FTUS43 KPAH 070531
TAFPAH
TAF
KPAH 070531Z 0706/0806 22003KT P6SM SCT250
     FM071600 22010G15KT P6SM BKN200
     FM080000 27007KT P6SM SCT050 OVC100=



000
FTUS43 KPAH 070531
TAFEVV
TAF
KEVV 070531Z 0706/0806 21003KT P6SM SCT250
     FM071600 21012G18KT P6SM BKN200
     FM080000 27007KT P6SM SCT050 OVC100=



000
FTUS43 KPAH 070531
TAFCGI
TAF
KCGI 070531Z 0706/0806 21003KT P6SM SCT250
     FM071600 22012G18KT P6SM BKN200
     FM072300 27008KT P6SM SCT050 OVC100=



000
FTUS43 KPAH 070531
TAFPAH
TAF
KPAH 070531Z 0706/0806 22003KT P6SM SCT250
     FM071600 22010G15KT P6SM BKN200
     FM080000 27007KT P6SM SCT050 OVC100=



000
FTUS43 KPAH 062329
TAFCGI
TAF
KCGI 062329Z 0700/0724 21003KT P6SM SCT250
     FM071600 22012G18KT P6SM BKN200=



000
FTUS43 KPAH 062329
TAFEVV
TAF
KEVV 062329Z 0700/0724 21003KT P6SM SCT250
     FM071600 21012G18KT P6SM BKN200=



000
FTUS43 KPAH 062329
TAFCGI
TAF
KCGI 062329Z 0700/0724 21003KT P6SM SCT250
     FM071600 22012G18KT P6SM BKN200=



000
FTUS43 KPAH 062329
TAFPAH
TAF
KPAH 062329Z 0700/0724 22003KT P6SM SCT250
     FM071600 22010G15KT P6SM BKN200=



000
FTUS43 KPAH 062329
TAFPAH
TAF
KPAH 062329Z 0700/0724 22003KT P6SM SCT250
     FM071600 22010G15KT P6SM BKN200=



000
FTUS43 KPAH 062329
TAFEVV
TAF
KEVV 062329Z 0700/0724 21003KT P6SM SCT250
     FM071600 21012G18KT P6SM BKN200=



000
FTUS43 KPAH 061735
TAFCGI
TAF
KCGI 061735Z 0618/0718 22005KT P6SM BKN250
     FM070000 21003KT P6SM SCT250
     FM071600 22012KT P6SM SCT250=



000
FTUS43 KPAH 061735
TAFEVV
TAF
KEVV 061735Z 0618/0718 22005KT P6SM SCT070 BKN250
     FM070000 21003KT P6SM SCT250
     FM071600 21010KT P6SM SCT250=



000
FTUS43 KPAH 061735
TAFPAH
TAF
KPAH 061735Z 0618/0718 24005KT P6SM BKN250
     FM070000 22003KT P6SM SCT250
     FM071600 22011KT P6SM SCT250=



000
FTUS43 KPAH 061120
TAFEVV
TAF
KEVV 061120Z 0612/0712 22005KT P6SM SCT070 BKN250
     FM070000 21003KT P6SM SCT250=



000
FTUS43 KPAH 061120
TAFPAH
TAF
KPAH 061120Z 0612/0712 23005KT P6SM SCT080 BKN250
     FM070000 22003KT P6SM SCT250=



000
FTUS43 KPAH 061120
TAFCGI
TAF
KCGI 061120Z 0612/0712 22005KT P6SM SCT080 BKN250
     FM070000 21003KT P6SM SCT250=



000
FTUS43 KPAH 061120
TAFPAH
TAF
KPAH 061120Z 0612/0712 23005KT P6SM SCT080 BKN250
     FM070000 22003KT P6SM SCT250=



000
FTUS43 KPAH 061120
TAFCGI
TAF
KCGI 061120Z 0612/0712 22005KT P6SM SCT080 BKN250
     FM070000 21003KT P6SM SCT250=



000
FTUS43 KPAH 061120
TAFEVV
TAF
KEVV 061120Z 0612/0712 22005KT P6SM SCT070 BKN250
     FM070000 21003KT P6SM SCT250=



000
FTUS43 KPAH 060520
TAFCGI
TAF
KCGI 060520Z 0606/0706 VRB03KT P6SM SCT250
     FM061100 22004KT P6SM BKN070 BKN250
     FM061800 23006KT P6SM SCT250=



000
FTUS43 KPAH 060520
TAFEVV
TAF
KEVV 060520Z 0606/0706 VRB03KT P6SM SCT250
     FM061100 23004KT P6SM BKN070 BKN250
     FM061800 22006KT P6SM SCT250=



000
FTUS43 KPAH 060520
TAFPAH
TAF
KPAH 060520Z 0606/0706 VRB03KT P6SM SCT250
     FM061200 22004KT P6SM BKN070 BKN250
     FM061900 23006KT P6SM SCT250=



000
FTUS43 KPAH 052330
TAFCGI
TAF
KCGI 052330Z 0600/0624 VRB03KT P6SM SCT250
     FM061100 22004KT P6SM BKN080 BKN250
     FM061800 23006KT P6SM SCT250=



000
FTUS43 KPAH 052330
TAFPAH
TAF
KPAH 052330Z 0600/0624 VRB03KT P6SM SCT250
     FM061200 22004KT P6SM BKN080 BKN250
     FM061900 23006KT P6SM SCT250=



000
FTUS43 KPAH 052330
TAFEVV
TAF
KEVV 052330Z 0600/0624 VRB03KT P6SM SCT250
     FM061100 23004KT P6SM SCT080 BKN250
     FM061800 23006KT P6SM SCT250=



000
FTUS43 KPAH 052330
TAFPAH
TAF
KPAH 052330Z 0600/0624 VRB03KT P6SM SCT250
     FM061200 22004KT P6SM BKN080 BKN250
     FM061900 23006KT P6SM SCT250=



000
FTUS43 KPAH 052330
TAFCGI
TAF
KCGI 052330Z 0600/0624 VRB03KT P6SM SCT250
     FM061100 22004KT P6SM BKN080 BKN250
     FM061800 23006KT P6SM SCT250=



000
FTUS43 KPAH 052330
TAFEVV
TAF
KEVV 052330Z 0600/0624 VRB03KT P6SM SCT250
     FM061100 23004KT P6SM SCT080 BKN250
     FM061800 23006KT P6SM SCT250=



000
FTUS43 KPAH 051720
TAFCGI
TAF
KCGI 051720Z 0518/0618 24007KT P6SM BKN250
      TEMPO 0523/0603 SCT025
     FM060300 VRB02KT P6SM BKN250
     FM061500 23006KT P6SM SCT070 BKN150=



000
FTUS43 KPAH 051720
TAFCGI
TAF
KCGI 051720Z 0518/0618 24007KT P6SM BKN250
      TEMPO 0523/0603 SCT025
     FM060300 VRB02KT P6SM BKN250
     FM061500 23006KT P6SM SCT070 BKN150=



000
FTUS43 KPAH 051720
TAFEVV
TAF
KEVV 051720Z 0518/0618 23008KT P6SM SCT020 BKN250
      TEMPO 0522/0601 BKN020
     FM060200 00000KT P6SM BKN250
     FM061500 21006KT P6SM SCT070 BKN150=



000
FTUS43 KPAH 051720
TAFPAH
TAF
KPAH 051720Z 0518/0618 24007KT P6SM BKN250
      TEMPO 0523/0603 SCT025
     FM060300 VRB03KT P6SM BKN250
     FM061500 23006KT P6SM SCT070 BKN150=



000
FTUS43 KPAH 051720
TAFEVV
TAF
KEVV 051720Z 0518/0618 23008KT P6SM SCT020 BKN250
      TEMPO 0522/0601 BKN020
     FM060200 00000KT P6SM BKN250
     FM061500 21006KT P6SM SCT070 BKN150=



000
FTUS43 KPAH 051720
TAFPAH
TAF
KPAH 051720Z 0518/0618 24007KT P6SM BKN250
      TEMPO 0523/0603 SCT025
     FM060300 VRB03KT P6SM BKN250
     FM061500 23006KT P6SM SCT070 BKN150=



000
FTUS43 KPAH 051120
TAFPAH
TAF
KPAH 051120Z 0512/0612 24007KT P6SM BKN250
     FM060000 VRB03KT P6SM BKN250=



000
FTUS43 KPAH 051120
TAFEVV
TAF
KEVV 051120Z 0512/0612 26007KT P6SM BKN250
     FM060000 VRB03KT P6SM BKN250=



000
FTUS43 KPAH 051120
TAFPAH
TAF
KPAH 051120Z 0512/0612 24007KT P6SM BKN250
     FM060000 VRB03KT P6SM BKN250=



000
FTUS43 KPAH 051120
TAFCGI
TAF
KCGI 051120Z 0512/0612 24007KT P6SM BKN250
     FM060000 VRB03KT P6SM BKN250=



000
FTUS43 KPAH 051120
TAFCGI
TAF
KCGI 051120Z 0512/0612 24007KT P6SM BKN250
     FM060000 VRB03KT P6SM BKN250=



000
FTUS43 KPAH 051120
TAFEVV
TAF
KEVV 051120Z 0512/0612 26007KT P6SM BKN250
     FM060000 VRB03KT P6SM BKN250=



000
FTUS43 KPAH 050520
TAFEVV
TAF
KEVV 050520Z 0506/0606 00000KT P6SM SCT250
     FM051500 26007KT P6SM SCT150 BKN250
     FM060000 VRB03KT P6SM BKN250=



000
FTUS43 KPAH 050520
TAFPAH
TAF
KPAH 050520Z 0506/0606 00000KT P6SM SCT250
     FM051500 28006KT P6SM SCT150 BKN250
     FM060000 VRB03KT P6SM BKN250=



000
FTUS43 KPAH 050520
TAFCGI
TAF
KCGI 050520Z 0506/0606 00000KT P6SM SCT250
     FM051500 29006KT P6SM SCT150 BKN250
     FM060000 VRB03KT P6SM BKN250=



000
FTUS43 KPAH 042320
TAFEVV
TAF
KEVV 042320Z 0500/0524 VRB03KT P6SM SCT100
     FM050600 00000KT P6SM SCT100
     FM051500 26007KT P6SM SCT100 BKN250=



000
FTUS43 KPAH 042320
TAFCGI
TAF
KCGI 042320Z 0500/0524 VRB03KT P6SM SKC
     FM050600 00000KT P6SM SCT150
     FM051500 29006KT P6SM SCT150 BKN250=



000
FTUS43 KPAH 042320
TAFPAH
TAF
KPAH 042320Z 0500/0524 VRB03KT P6SM SKC
     FM050600 00000KT P6SM SCT150
     FM051500 28006KT P6SM SCT150 BKN250=



000
FTUS43 KPAH 042320
TAFPAH
TAF
KPAH 042320Z 0500/0524 VRB03KT P6SM SKC
     FM050600 00000KT P6SM SCT150
     FM051500 28006KT P6SM SCT150 BKN250=



000
FTUS43 KPAH 042320
TAFCGI
TAF
KCGI 042320Z 0500/0524 VRB03KT P6SM SKC
     FM050600 00000KT P6SM SCT150
     FM051500 29006KT P6SM SCT150 BKN250=



000
FTUS43 KPAH 042320
TAFEVV
TAF
KEVV 042320Z 0500/0524 VRB03KT P6SM SCT100
     FM050600 00000KT P6SM SCT100
     FM051500 26007KT P6SM SCT100 BKN250=



000
FTUS43 KPAH 041724
TAFEVV
TAF
KEVV 041724Z 0418/0518 29009KT P6SM FEW035
     FM050000 19002KT P6SM SKC
     FM051500 24006KT P6SM SKC=



000
FTUS43 KPAH 041724
TAFPAH
TAF
KPAH 041724Z 0418/0518 32008KT P6SM SKC
     FM050000 20002KT P6SM SKC
     FM051500 28006KT P6SM SKC=



000
FTUS43 KPAH 041724
TAFCGI
TAF
KCGI 041724Z 0418/0518 32008KT P6SM SKC
     FM050000 20002KT P6SM SKC
     FM051500 29006KT P6SM SKC=



000
FTUS43 KPAH 041724
TAFEVV
TAF
KEVV 041724Z 0418/0518 29009KT P6SM FEW035
     FM050000 19002KT P6SM SKC
     FM051500 24006KT P6SM SKC=



000
FTUS43 KPAH 041724
TAFPAH
TAF
KPAH 041724Z 0418/0518 32008KT P6SM SKC
     FM050000 20002KT P6SM SKC
     FM051500 28006KT P6SM SKC=



    US Dept of Commerce
    National Oceanic and Atmospheric Administration
    National Weather Service
    1325 East West Highway
    Silver Spring, MD 20910
    Page Author: NWS Internet Services Team
Disclaimer
Information Quality
Credits
Glossary
Privacy Policy
Freedom of Information Act (FOIA)
About Us
Career Opportunities